Time;durP1;ratioP1;P1;durP2;ratioP2;P2;SDS_P1;SDS_P2;PMS_P1;PMS_P2;Temp;Humidity;BMP_temperature;BMP_pressure;BME280_temperature;BME280_humidity;BME280_pressure;Samples;Min_cycle;Max_cycle;Signal;HPM_P1;HPM_P2
2021/01/08 00:01:42;;;;;;;;;;;;;;;0.11;100.00;100291.84;5112885;28;19924;-69
2021/01/08 00:04:08;;;;;;;;;;;;;;;0.09;100.00;100299.03;5113143;28;19924;-69
2021/01/08 00:06:34;;;;;;;;;;;;;;;0.09;100.00;100291.03;5112586;28;19931;-69
2021/01/08 00:09:00;;;;;;;;;;;;;;;0.11;100.00;100291.84;5112973;28;19963;-69
2021/01/08 00:11:26;;;;;;;;;;;;;;;0.10;100.00;100295.44;5113080;28;19959;-69
2021/01/08 00:13:52;;;;;;;;;;;;;;;0.08;100.00;100286.66;5113034;28;20404;-69
2021/01/08 00:16:18;;;;;;;;;;;;;;;0.08;100.00;100281.31;5112787;28;19963;-70
2021/01/08 00:18:44;;;;;;;;;;;;;;;0.10;100.00;100286.56;5112806;28;20011;-69
2021/01/08 00:21:11;;;;;;;;;;;;;;;0.09;100.00;100283.00;5112822;28;20270;-69
2021/01/08 00:23:36;;;;;;;;;;;;;;;0.10;100.00;100279.41;5111610;28;19931;-69
2021/01/08 00:26:03;;;;;;;;;;;;;;;0.07;100.00;100284.91;5112593;28;19941;-69
2021/01/08 00:28:28;;;;;;;;;;;;;;;0.08;100.00;100283.09;5112732;28;20045;-69
2021/01/08 00:30:54;;;;;;;;;;;;;;;0.08;100.00;100285.75;5112695;28;19935;-69
2021/01/08 00:33:20;;;;;;;;;;;;;;;0.07;100.00;100284.06;5112801;28;19928;-69
2021/01/08 00:35:46;;;;;;;;;;;;;;;0.05;100.00;100283.22;5110595;28;19924;-69
2021/01/08 00:38:12;;;;;;;;;;;;;;;0.03;100.00;100277.97;5103359;28;19923;-69
2021/01/08 00:40:38;;;;;;;;;;;;;;;0.03;100.00;100280.63;5104629;28;20353;-69
2021/01/08 00:43:04;;;;;;;;;;;;;;;0.03;100.00;100283.31;5112306;28;19923;-69
2021/01/08 00:45:30;;;;;;;;;;;;;;;0.05;100.00;100277.91;5112602;28;19985;-68
2021/01/08 00:47:57;;;;;;;;;;;;;;;0.03;100.00;100283.31;5111513;28;21556;-69
2021/01/08 00:50:23;;;;;;;;;;;;;;;0.05;100.00;100283.22;5112401;28;19930;-68
2021/01/08 00:52:49;;;;;;;;;;;;;;;0.05;100.00;100278.75;5112558;28;19924;-69
2021/01/08 00:55:15;;;;;;;;;;;;;;;0.05;100.00;100283.22;5112300;28;19924;-69
2021/01/08 00:57:50;;;;;;;;;;;;;;;0.06;100.00;100287.66;5110687;28;19924;-69
2021/01/08 01:00:16;;;;;;;;;;;;;;;0.04;100.00;100279.72;5112352;28;19932;-69
2021/01/08 01:02:41;;;;;;;;;;;;;;;0.06;100.00;100288.50;5111822;28;19962;-69
2021/01/08 01:05:08;;;;;;;;;;;;;;;0.05;100.00;100284.09;5112400;28;20300;-69
2021/01/08 01:07:34;;;;;;;;;;;;;;;0.07;100.00;100281.38;5112026;28;19962;-69
2021/01/08 01:10:00;;;;;;;;;;;;;;;0.09;100.00;100284.84;5112114;28;19924;-69
2021/01/08 01:12:26;;;;;;;;;;;;;;;0.08;100.00;100286.66;5112078;28;20462;-69
2021/01/08 01:14:52;;;;;;;;;;;;;;;0.11;100.00;100291.84;5112080;28;19958;-69
2021/01/08 01:17:18;;;;;;;;;;;;;;;0.09;100.00;100285.69;5110821;28;19935;-69
2021/01/08 01:19:44;;;;;;;;;;;;;;;0.10;100.00;100279.41;5111930;28;19924;-69
2021/01/08 01:22:09;;;;;;;;;;;;;;;0.11;100.00;100293.66;5112053;28;19923;-69
2021/01/08 01:24:35;;;;;;;;;;;;;;;0.09;100.00;100293.69;5111983;28;19924;-69
2021/01/08 01:27:01;;;;;;;;;;;;;;;0.09;100.00;100293.69;5110425;28;19928;-69
2021/01/08 01:29:27;;;;;;;;;;;;;;;0.07;100.00;100290.25;5111916;28;19924;-69
2021/01/08 01:31:53;;;;;;;;;;;;;;;0.09;100.00;100292.84;5111765;28;19931;-69
2021/01/08 01:34:19;;;;;;;;;;;;;;;0.12;100.00;100300.69;5111682;28;19924;-69
2021/01/08 01:36:46;;;;;;;;;;;;;;;0.13;100.00;100303.31;5111620;28;19927;-69
2021/01/08 01:39:12;;;;;;;;;;;;;;;0.11;100.00;100301.66;5111773;28;20022;-69
2021/01/08 01:41:38;;;;;;;;;;;;;;;0.11;100.00;100293.66;5111806;28;19950;-69
2021/01/08 01:44:04;;;;;;;;;;;;;;;0.08;100.00;100294.66;5111749;28;20041;-69
2021/01/08 01:46:30;;;;;;;;;;;;;;;0.09;100.00;100293.69;5111599;28;19970;-69
2021/01/08 01:48:56;;;;;;;;;;;;;;;0.11;100.00;100294.50;5111617;28;19974;-69
2021/01/08 01:51:22;;;;;;;;;;;;;;;0.09;100.00;100304.38;5111548;28;19971;-69
2021/01/08 01:53:48;;;;;;;;;;;;;;;0.08;100.00;100293.75;5111809;28;19931;-69
2021/01/08 01:56:14;;;;;;;;;;;;;;;0.07;100.00;100287.56;5111615;28;19951;-69
2021/01/08 01:58:40;;;;;;;;;;;;;;;0.05;100.00;100297.44;5111696;28;20282;-69
2021/01/08 02:01:06;;;;;;;;;;;;;;;0.04;100.00;100290.38;5111600;28;19928;-69
2021/01/08 02:03:36;;;;;;;;;;;;;;;0.04;100.00;100293.06;5111656;28;19931;-69
2021/01/08 02:06:05;;;;;;;;;;;;;;;0.04;100.00;100301.06;5111291;28;20023;-69
2021/01/08 02:08:31;;;;;;;;;;;;;;;0.02;100.00;100294.91;5111309;28;20026;-69
2021/01/08 02:10:59;;;;;;;;;;;;;;;0.02;100.00;100281.56;5111391;28;19934;-69
2021/01/08 02:13:27;;;;;;;;;;;;;;;0.03;100.00;100293.09;5111616;28;19924;-69
2021/01/08 02:15:53;;;;;;;;;;;;;;;0.03;100.00;100291.31;5111456;28;20450;-69
2021/01/08 02:18:19;;;;;;;;;;;;;;;0.02;100.00;100289.56;5111590;28;19924;-69
2021/01/08 02:20:46;;;;;;;;;;;;;;;0.02;100.00;100289.56;5111449;28;20022;-69
2021/01/08 02:23:17;;;;;;;;;;;;;;;0.02;100.00;100291.38;5111244;28;20030;-69
2021/01/08 02:25:45;;;;;;;;;;;;;;;0.02;100.00;100286.06;5111345;28;19969;-69
2021/01/08 02:28:21;;;;;;;;;;;;;;;0.04;100.00;100289.50;5111652;28;20014;-69
2021/01/08 02:30:47;;;;;;;;;;;;;;;0.04;100.00;100284.16;5114817;28;19958;-69
2021/01/08 02:33:13;;;;;;;;;;;;;;;0.01;100.00;100287.84;5115077;28;19974;-69
2021/01/08 02:35:39;;;;;;;;;;;;;;;0.04;100.00;100286.84;5113733;28;20014;-69
2021/01/08 02:38:06;;;;;;;;;;;;;;;0.04;100.00;100284.16;5114896;28;20033;-69
2021/01/08 02:40:32;;;;;;;;;;;;;;;0.05;100.00;100286.75;5114639;28;20027;-69
2021/01/08 02:43:00;;;;;;;;;;;;;;;0.07;100.00;100290.25;5114802;28;19927;-68
2021/01/08 02:45:26;;;;;;;;;;;;;;;0.06;100.00;100283.16;5114862;28;20018;-69
2021/01/08 02:47:52;;;;;;;;;;;;;;;0.07;100.00;100281.38;5114857;28;19947;-68
2021/01/08 02:50:18;;;;;;;;;;;;;;;0.07;100.00;100278.72;5114869;28;19935;-68
2021/01/08 02:52:45;;;;;;;;;;;;;;;0.08;100.00;100283.97;5114566;28;19924;-68
2021/01/08 02:55:13;;;;;;;;;;;;;;;0.08;100.00;100283.97;5114679;28;19924;-70
2021/01/08 02:57:39;;;;;;;;;;;;;;;0.08;100.00;100280.41;5114173;28;20017;-69
2021/01/08 03:00:07;;;;;;;;;;;;;;;0.07;100.00;100282.22;5114397;28;19930;-69
2021/01/08 03:02:33;;;;;;;;;;;;;;;0.08;100.00;100280.41;5114445;28;19966;-69
2021/01/08 03:04:59;;;;;;;;;;;;;;;0.08;100.00;100280.41;5114263;28;19932;-69
2021/01/08 03:07:26;;;;;;;;;;;;;;;0.10;100.00;100284.75;5114313;28;19931;-69
2021/01/08 03:09:52;;;;;;;;;;;;;;;0.11;100.00;100283.81;5114440;28;20496;-68
2021/01/08 03:12:18;;;;;;;;;;;;;;;0.09;100.00;100283.00;5114276;28;20225;-69
2021/01/08 03:14:44;;;;;;;;;;;;;;;0.10;100.00;100276.75;5114267;28;19955;-69
2021/01/08 03:17:11;;;;;;;;;;;;;;;0.10;100.00;100276.75;5113879;28;20046;-69
2021/01/08 03:19:37;;;;;;;;;;;;;;;0.07;100.00;100279.56;5114250;28;19930;-69
2021/01/08 03:22:03;;;;;;;;;;;;;;;0.07;100.00;100279.56;5114254;28;19923;-69
2021/01/08 03:24:29;;;;;;;;;;;;;;;0.08;100.00;100277.75;5114080;28;19935;-69
2021/01/08 03:26:55;;;;;;;;;;;;;;;0.06;100.00;100277.81;5113819;28;19924;-69
2021/01/08 03:29:20;;;;;;;;;;;;;;;0.07;100.00;100274.22;5113955;28;20014;-69
2021/01/08 03:31:46;;;;;;;;;;;;;;;0.07;100.00;100274.22;5113767;28;20455;-69
2021/01/08 03:34:13;;;;;;;;;;;;;;;0.05;100.00;100275.22;5113647;28;19928;-70
2021/01/08 03:36:38;;;;;;;;;;;;;;;0.05;100.00;100275.22;5113856;28;19962;-69
2021/01/08 03:39:04;;;;;;;;;;;;;;;0.04;100.00;100271.72;5113787;28;19924;-69
2021/01/08 03:41:30;;;;;;;;;;;;;;;0.06;100.00;100272.50;5112975;28;19928;-70
2021/01/08 03:43:56;;;;;;;;;;;;;;;0.05;100.00;100273.41;5113522;28;19924;-69
2021/01/08 03:46:22;;;;;;;;;;;;;;;0.05;100.00;100269.88;5113809;28;19923;-68
2021/01/08 03:48:47;;;;;;;;;;;;;;;0.05;100.00;100276.09;5113274;28;19969;-69
2021/01/08 03:51:14;;;;;;;;;;;;;;;0.03;100.00;100275.31;5113457;28;19993;-69
2021/01/08 03:53:40;;;;;;;;;;;;;;;0.01;100.00;100274.50;5113366;28;20014;-68
2021/01/08 03:56:06;;;;;;;;;;;;;;;0.01;100.00;100274.50;5113383;28;20014;-68
2021/01/08 03:58:32;;;;;;;;;;;;;;;0.02;100.00;100272.72;5113534;28;19960;-68
2021/01/08 04:00:58;;;;;;;;;;;;;;;0.01;100.00;100269.16;5113238;28;20399;-68
2021/01/08 04:03:23;;;;;;;;;;;;;;;0.01;100.00;100263.81;5113344;28;19924;-68
2021/01/08 04:05:49;;;;;;;;;;;;;;;0.03;100.00;100266.41;5113114;28;20003;-68
2021/01/08 04:08:16;;;;;;;;;;;;;;;0.03;100.00;100266.41;5112919;28;19967;-68
2021/01/08 04:10:42;;;;;;;;;;;;;;;0.04;100.00;100262.81;5113107;28;20329;-68
2021/01/08 04:13:07;;;;;;;;;;;;;;;0.03;100.00;100261.06;5113083;28;19985;-68
2021/01/08 04:15:33;;;;;;;;;;;;;;;0.04;100.00;100261.03;5112845;28;19924;-68
2021/01/08 04:17:59;;;;;;;;;;;;;;;0.04;100.00;100257.47;5112900;28;19923;-68
2021/01/08 04:20:25;;;;;;;;;;;;;;;0.03;100.00;100256.63;5113108;28;20270;-69
2021/01/08 04:22:51;;;;;;;;;;;;;;;0.02;100.00;100259.38;5112923;28;19924;-69
2021/01/08 04:25:17;;;;;;;;;;;;;;;0.01;100.00;100260.28;5112861;28;20471;-68
2021/01/08 04:27:43;;;;;;;;;;;;;;;0.01;100.00;100257.63;5112868;28;20370;-69
2021/01/08 04:30:09;;;;;;;;;;;;;;;0.00;100.00;100262.09;5112832;28;19935;-68
2021/01/08 04:32:35;;;;;;;;;;;;;;;-0.01;100.00;100258.56;5112693;28;19975;-69
2021/01/08 04:35:01;;;;;;;;;;;;;;;-0.01;100.00;100263.88;5112781;28;19932;-68
2021/01/08 04:37:27;;;;;;;;;;;;;;;0.00;100.00;100262.09;5112202;28;20022;-68
2021/01/08 04:39:52;;;;;;;;;;;;;;;0.01;100.00;100263.81;5113219;28;19959;-68
2021/01/08 04:42:19;;;;;;;;;;;;;;;0.01;100.00;100268.31;5113299;28;20281;-68
2021/01/08 04:44:45;;;;;;;;;;;;;;;-0.01;100.00;100266.56;5113099;28;19962;-68
2021/01/08 04:47:13;;;;;;;;;;;;;;;0.00;100.00;100267.44;5113422;28;19973;-68
2021/01/08 04:49:39;;;;;;;;;;;;;;;0.01;100.00;100271.81;5112487;28;19959;-69
2021/01/08 04:52:06;;;;;;;;;;;;;;;0.01;100.00;100276.31;5112290;28;20303;-68
2021/01/08 04:54:31;;;;;;;;;;;;;;;0.02;100.00;100275.38;5112550;28;20023;-68
2021/01/08 04:56:59;;;;;;;;;;;;;;;0.01;100.00;100269.16;5112235;28;19924;-71
2021/01/08 04:59:25;;;;;;;;;;;;;;;0.03;100.00;100275.31;5112321;28;20014;-71
2021/01/08 05:01:52;;;;;;;;;;;;;;;0.03;100.00;100271.75;5110830;28;20307;-70
2021/01/08 05:04:17;;;;;;;;;;;;;;;0.03;100.00;100269.97;5112173;28;19962;-69
2021/01/08 05:06:44;;;;;;;;;;;;;;;0.04;100.00;100277.03;5111969;28;19923;-69
2021/01/08 05:09:10;;;;;;;;;;;;;;;0.04;100.00;100277.03;5112134;28;20424;-69
2021/01/08 05:11:35;;;;;;;;;;;;;;;0.04;100.00;100274.38;5112146;28;19927;-69
2021/01/08 05:14:02;;;;;;;;;;;;;;;0.03;100.00;100266.41;5112083;28;20031;-69
2021/01/08 05:16:30;;;;;;;;;;;;;;;0.01;100.00;100278.97;5111937;28;20415;-69
2021/01/08 05:18:56;;;;;;;;;;;;;;;-0.02;100.00;100266.63;5112196;28;20010;-69
2021/01/08 05:21:25;;;;;;;;;;;;;;;-0.02;100.00;100274.63;5111733;28;20394;-69
2021/01/08 05:23:51;;;;;;;;;;;;;;;-0.04;100.00;100271.16;5111896;28;20322;-69
2021/01/08 05:26:16;;;;;;;;;;;;;;;-0.06;100.00;100268.56;5111710;28;19930;-69
2021/01/08 05:28:49;;;;;;;;;;;;;;;-0.05;100.00;100269.44;5111891;28;19923;-70
2021/01/08 05:31:15;;;;;;;;;;;;;;;-0.04;100.00;100281.81;5111991;28;20006;-69
2021/01/08 05:33:43;;;;;;;;;;;;;;;-0.04;100.00;100277.38;5105225;28;20028;-69
2021/01/08 05:36:10;;;;;;;;;;;;;;;-0.02;100.00;100279.97;5094334;28;20452;-69
2021/01/08 05:38:36;;;;;;;;;;;;;;;-0.04;100.00;100276.50;5091521;28;20039;-68
2021/01/08 05:41:03;;;;;;;;;;;;;;;-0.04;100.00;100279.16;5107602;28;20022;-68
2021/01/08 05:43:29;;;;;;;;;;;;;;;-0.04;100.00;100287.16;5106785;28;19927;-67
2021/01/08 05:46:06;;;;;;;;;;;;;;;-0.04;100.00;100285.38;5092430;28;19925;-67
2021/01/08 05:48:32;;;;;;;;;;;;;;;-0.03;100.00;100288.91;5091097;28;20336;-67
2021/01/08 05:50:59;;;;;;;;;;;;;;;-0.02;100.00;100290.66;5090288;28;20027;-67
2021/01/08 05:53:26;;;;;;;;;;;;;;;-0.03;100.00;100288.91;5091142;28;20023;-67
2021/01/08 05:55:51;;;;;;;;;;;;;;;0.01;100.00;100292.31;5091130;28;19960;-67
2021/01/08 05:58:18;;;;;;;;;;;;;;;-0.01;100.00;100287.06;5090960;28;19924;-67
2021/01/08 06:00:43;;;;;;;;;;;;;;;-0.01;100.00;100290.56;5091106;28;19924;-67
2021/01/08 06:03:10;;;;;;;;;;;;;;;0.01;100.00;100290.50;5091419;28;19967;-67
2021/01/08 06:05:38;;;;;;;;;;;;;;;0.01;100.00;100290.50;5094923;28;20530;-67
2021/01/08 06:08:06;;;;;;;;;;;;;;;0.01;100.00;100293.16;5094828;28;19924;-68
2021/01/08 06:10:33;;;;;;;;;;;;;;;0.02;100.00;100296.72;5094830;28;20019;-67
2021/01/08 06:12:59;;;;;;;;;;;;;;;0.02;100.00;100292.25;5094566;28;20026;-66
2021/01/08 06:15:25;;;;;;;;;;;;;;;0.01;100.00;100295.84;5094699;28;20014;-67
2021/01/08 06:17:51;;;;;;;;;;;;;;;-0.01;100.00;100300.41;5094547;28;19924;-67
2021/01/08 06:20:17;;;;;;;;;;;;;;;0.01;100.00;100290.50;5094891;28;19977;-67
2021/01/08 06:22:43;;;;;;;;;;;;;;;0.01;100.00;100295.84;5094750;28;19931;-68
2021/01/08 06:25:10;;;;;;;;;;;;;;;-0.02;100.00;100296.00;5094681;28;19924;-68
2021/01/08 06:27:36;;;;;;;;;;;;;;;-0.02;100.00;100290.66;5094560;28;19924;-68
2021/01/08 06:30:04;;;;;;;;;;;;;;;-0.02;100.00;100290.66;5094391;28;20496;-67
2021/01/08 06:32:30;;;;;;;;;;;;;;;-0.02;100.00;100304.84;5101869;28;20023;-68
2021/01/08 06:35:02;;;;;;;;;;;;;;;-0.01;100.00;100308.41;5114940;28;19967;-68
2021/01/08 06:37:35;;;;;;;;;;;;;;;0.01;100.00;100301.19;5106264;28;19932;-68
2021/01/08 06:40:02;;;;;;;;;;;;;;;0.01;100.00;100301.19;5107595;28;20008;-67
2021/01/08 06:42:29;;;;;;;;;;;;;;;0.01;100.00;100303.00;5113843;28;19993;-67
2021/01/08 06:44:55;;;;;;;;;;;;;;;0.01;100.00;100305.66;5110039;28;19923;-67
2021/01/08 06:47:22;;;;;;;;;;;;;;;0.01;100.00;100303.00;5113554;28;20026;-67
2021/01/08 06:49:50;;;;;;;;;;;;;;;0.01;100.00;100306.53;5114541;28;20018;-67
2021/01/08 06:52:16;;;;;;;;;;;;;;;0.02;100.00;100305.59;5114037;28;19924;-67
2021/01/08 06:54:42;;;;;;;;;;;;;;;0.00;100.00;100310.16;5114587;28;19931;-69
2021/01/08 06:57:16;;;;;;;;;;;;;;;-0.01;100.00;100311.06;5107799;28;19958;-68
2021/01/08 06:59:45;;;;;;;;;;;;;;;-0.01;100.00;100308.41;5103226;28;19999;-68
2021/01/08 07:02:13;;;;;;;;;;;;;;;-0.03;100.00;100316.47;5107847;28;20473;-69
2021/01/08 07:04:39;;;;;;;;;;;;;;;-0.04;100.00;100312.06;5093829;28;20362;-68
2021/01/08 07:07:06;;;;;;;;;;;;;;;-0.02;100.00;100323.53;5097917;28;19931;-68
2021/01/08 07:09:32;;;;;;;;;;;;;;;-0.02;100.00;100331.53;5111950;28;19931;-68
2021/01/08 07:11:58;;;;;;;;;;;;;;;0.01;100.00;100327.00;5103345;28;20018;-68
2021/01/08 07:14:24;;;;;;;;;;;;;;;-0.01;100.00;100332.41;5112941;28;20038;-67
2021/01/08 07:16:52;;;;;;;;;;;;;;;-0.01;100.00;100329.75;5093272;28;20369;-68
2021/01/08 07:19:21;;;;;;;;;;;;;;;0.00;100.00;100339.50;5096175;28;20469;-68
2021/01/08 07:21:48;;;;;;;;;;;;;;;-0.01;100.00;100335.09;5093467;28;20030;-68
2021/01/08 07:24:15;;;;;;;;;;;;;;;-0.02;100.00;100338.69;5093428;28;19947;-68
2021/01/08 07:26:41;;;;;;;;;;;;;;;0.00;100.00;100339.50;5093300;28;19924;-66
2021/01/08 07:29:08;;;;;;;;;;;;;;;0.01;100.00;100348.38;5093349;28;19931;-68
2021/01/08 07:31:34;;;;;;;;;;;;;;;0.03;100.00;100342.03;5096280;28;19924;-68
2021/01/08 07:34:01;;;;;;;;;;;;;;;0.03;100.00;100346.47;5092923;28;19955;-68
2021/01/08 07:36:28;;;;;;;;;;;;;;;0.05;100.00;100347.28;5092965;28;20401;-68
2021/01/08 07:38:54;;;;;;;;;;;;;;;0.04;100.00;100345.56;5100552;28;19930;-69
2021/01/08 07:41:33;;;;;;;;;;;;;;;0.03;100.00;100352.69;5105548;28;19936;-68
2021/01/08 07:43:59;;;;;;;;;;;;;;;0.05;100.00;100349.97;5100533;28;19982;-68
2021/01/08 07:46:32;;;;;;;;;;;;;;;0.06;100.00;100352.56;5098151;28;19924;-67
2021/01/08 07:48:58;;;;;;;;;;;;;;;0.07;100.00;100361.47;5100947;28;20369;-68
2021/01/08 07:51:43;;;;;;;;;;;;;;;0.08;100.00;100372.06;5108715;28;19973;-69
2021/01/08 07:54:09;;;;;;;;;;;;;;;0.12;100.00;100368.31;5112751;28;20384;-68
2021/01/08 07:56:35;;;;;;;;;;;;;;;0.14;100.00;100377.13;5112972;28;19930;-68
2021/01/08 07:59:03;;;;;;;;;;;;;;;0.15;100.00;100384.19;5113392;28;19951;-68
2021/01/08 08:01:28;;;;;;;;;;;;;;;0.14;100.00;100377.13;5112645;28;19935;-68
2021/01/08 08:03:58;;;;;;;;;;;;;;;0.17;100.00;100384.13;5112993;28;19923;-68
2021/01/08 08:06:24;;;;;;;;;;;;;;;0.14;100.00;100382.44;5112865;28;19924;-68
2021/01/08 08:08:52;;;;;;;;;;;;;;;0.16;100.00;100387.72;5112884;28;19927;-68
2021/01/08 08:11:19;;;;;;;;;;;;;;;0.17;100.00;100386.78;5112979;28;20060;-68
2021/01/08 08:13:45;;;;;;;;;;;;;;;0.19;100.00;100389.38;5112646;28;19931;-68
2021/01/08 08:16:11;;;;;;;;;;;;;;;0.18;100.00;100385.00;5112899;27;19923;-68
2021/01/08 08:18:49;;;;;;;;;;;;;;;0.20;100.00;100397.34;5112839;27;20022;-68
2021/01/08 08:21:14;;;;;;;;;;;;;;;0.22;100.00;100394.63;5091500;28;20014;-68
2021/01/08 08:23:40;;;;;;;;;;;;;;;0.23;100.00;100397.22;5092153;28;19928;-69
2021/01/08 08:26:07;;;;;;;;;;;;;;;0.25;100.00;100407.81;5091974;28;20011;-68
2021/01/08 08:28:33;;;;;;;;;;;;;;;0.26;100.00;100406.91;5092008;28;20026;-68
2021/01/08 08:30:59;;;;;;;;;;;;;;;0.30;100.00;100409.34;5090850;28;20393;-68
2021/01/08 08:33:25;;;;;;;;;;;;;;;0.31;100.00;100407.56;5093606;28;19924;-68
2021/01/08 08:35:51;;;;;;;;;;;;;;;0.36;100.00;100404.69;5112126;28;19923;-67
2021/01/08 08:38:17;;;;;;;;;;;;;;;0.38;100.00;100411.69;5100660;28;20023;-68
2021/01/08 08:40:43;;;;;;;;;;;;;;;0.35;100.00;100406.50;5095430;28;19924;-68
2021/01/08 08:43:21;;;;;;;;;;;;;;;0.40;100.00;100411.63;5105300;28;19924;-68
2021/01/08 08:45:46;;;;;;;;;;;;;;;0.43;100.00;100415.03;5112097;28;19923;-68
2021/01/08 08:48:13;;;;;;;;;;;;;;;0.45;100.00;100415.81;5112389;28;20084;-68
2021/01/08 08:50:41;;;;;;;;;;;;;;;0.45;100.00;100415.81;5112330;28;20019;-68
2021/01/08 08:53:11;;;;;;;;;;;;;;;0.47;100.00;100416.63;5112102;28;20345;-68
2021/01/08 08:55:36;;;;;;;;;;;;;;;0.48;100.00;100421.03;5096686;28;20417;-68
2021/01/08 08:58:06;;;;;;;;;;;;;;;0.44;100.00;100415.88;5112367;28;19935;-68
2021/01/08 09:00:34;;;;;;;;;;;;;;;0.48;100.00;100417.47;5111861;28;19924;-68
2021/01/08 09:03:00;;;;;;;;;;;;;;;0.44;100.00;100421.22;5112017;28;20475;-67
2021/01/08 09:05:29;;;;;;;;;;;;;;;0.41;100.00;100410.69;5112135;28;20036;-68
2021/01/08 09:07:59;;;;;;;;;;;;;;;0.42;100.00;100412.44;5111712;28;20027;-68
2021/01/08 09:10:27;;;;;;;;;;;;;;;0.43;100.00;100409.69;5110679;28;20322;-67
2021/01/08 09:12:57;;;;;;;;;;;;;;;0.52;100.00;100423.56;5107063;28;20018;-67
2021/01/08 09:15:25;;;;;;;;;;;;;;;0.57;100.00;100422.44;5110715;28;19930;-67
2021/01/08 09:18:02;;;;;;;;;;;;;;;0.62;100.00;100424.91;5111119;28;20015;-67
2021/01/08 09:20:28;;;;;;;;;;;;;;;0.53;100.00;100420.81;5094178;28;19947;-67
2021/01/08 09:22:55;;;;;;;;;;;;;;;0.55;100.00;100424.31;5096278;28;20303;-67
2021/01/08 09:25:22;;;;;;;;;;;;;;;0.61;100.00;100425.84;5111746;28;20052;-67
2021/01/08 09:27:48;;;;;;;;;;;;;;;0.61;100.00;100429.38;5111564;28;19978;-68
2021/01/08 09:30:14;;;;;;;;;;;;;;;0.62;100.00;100424.91;5092065;28;19967;-68
2021/01/08 09:32:40;;;;;;;;;;;;;;;0.62;100.00;100428.44;5097322;28;20554;-68
2021/01/08 09:35:08;;;;;;;;;;;;;;;0.69;100.00;100437.03;5111266;28;19946;-68
2021/01/08 09:37:39;;;;;;;;;;;;;;;0.74;100.00;100436.84;5106016;28;20807;-68
2021/01/08 09:40:09;;;;;;;;;;;;;;;0.77;100.00;100428.69;5113151;28;19924;-67
2021/01/08 09:42:36;;;;;;;;;;;;;;;0.77;100.00;100434.03;5115032;28;19934;-68
2021/01/08 09:45:15;;;;;;;;;;;;;;;0.73;100.00;100432.44;5115787;28;19951;-67
2021/01/08 09:47:41;;;;;;;;;;;;;;;0.76;100.00;100430.50;5109734;28;19947;-68
2021/01/08 09:50:21;;;;;;;;;;;;;;;0.81;100.00;100424.94;5105006;28;19932;-67
2021/01/08 09:52:48;;;;;;;;;;;;;;;0.83;100.00;100431.09;5113863;28;19939;-68
2021/01/08 09:55:22;;;;;;;;;;;;;;;0.87;100.00;100426.44;5102021;28;19939;-69
2021/01/08 09:57:53;;;;;;;;;;;;;;;0.88;100.00;100420.19;5115290;28;19978;-68
2021/01/08 10:00:26;;;;;;;;;;;;;;;0.92;100.00;100427.13;5114878;28;20385;-68
2021/01/08 10:02:52;;;;;;;;;;;;;;;0.91;100.00;100426.25;5115582;28;20419;-68
2021/01/08 10:05:25;;;;;;;;;;;;;;;0.86;100.00;100422.06;5108268;28;19924;-68
2021/01/08 10:07:51;;;;;;;;;;;;;;;0.81;100.00;100420.44;5094841;28;19935;-68
2021/01/08 10:10:34;;;;;;;;;;;;;;;0.83;100.00;100418.59;5101178;28;20014;-68
2021/01/08 10:13:00;;;;;;;;;;;;;;;0.86;100.00;100422.06;5114339;28;20480;-68
2021/01/08 10:15:33;;;;;;;;;;;;;;;0.92;100.00;100425.34;5106560;28;19924;-68
2021/01/08 10:18:06;;;;;;;;;;;;;;;0.93;100.00;100423.50;5094971;28;19969;-68
2021/01/08 10:20:39;;;;;;;;;;;;;;;0.96;100.00;100428.72;5102711;28;20035;-66
2021/01/08 10:23:09;;;;;;;;;;;;;;;1.02;100.00;100422.19;5107270;28;19955;-66
2021/01/08 10:25:35;;;;;;;;;;;;;;;1.00;100.00;100423.16;5108709;28;19924;-67
2021/01/08 10:28:09;;;;;;;;;;;;;;;1.02;100.00;100427.56;5103707;28;20308;-67
2021/01/08 10:30:35;;;;;;;;;;;;;;;0.94;100.00;100425.25;5114956;28;20026;-67
2021/01/08 10:33:01;;;;;;;;;;;;;;;0.93;100.00;100427.03;5095139;28;20058;-66
2021/01/08 10:35:27;;;;;;;;;;;;;;;0.94;100.00;100425.25;5104789;28;20300;-67
2021/01/08 10:37:54;;;;;;;;;;;;;;;0.95;100.00;100424.28;5098203;28;19924;-66
2021/01/08 10:40:19;;;;;;;;;;;;;;;0.87;100.00;100418.44;5103960;28;19951;-67
2021/01/08 10:42:45;;;;;;;;;;;;;;;0.83;100.00;100420.41;5098014;28;19924;-68
2021/01/08 10:45:12;;;;;;;;;;;;;;;0.80;100.00;100428.53;5112942;28;19923;-67
2021/01/08 10:47:37;;;;;;;;;;;;;;;0.82;100.00;100427.53;5112490;28;19966;-66
2021/01/08 10:50:04;;;;;;;;;;;;;;;0.77;100.00;100428.69;5093772;28;19977;-69
2021/01/08 10:52:29;;;;;;;;;;;;;;;0.80;100.00;100428.53;5101488;28;20026;-69
2021/01/08 10:54:56;;;;;;;;;;;;;;;0.78;100.00;100425.09;5097651;28;19928;-67
2021/01/08 10:57:22;;;;;;;;;;;;;;;0.77;100.00;100434.03;5099345;28;20010;-67
2021/01/08 10:59:47;;;;;;;;;;;;;;;0.70;100.00;100430.78;5112664;28;19967;-67
2021/01/08 11:02:13;;;;;;;;;;;;;;;0.70;100.00;100427.25;5109464;28;19947;-68
2021/01/08 11:04:40;;;;;;;;;;;;;;;0.73;100.00;100427.94;5093764;28;19925;-68
2021/01/08 11:07:05;;;;;;;;;;;;;;;0.78;100.00;100431.28;5095821;28;19956;-67
2021/01/08 11:09:31;;;;;;;;;;;;;;;0.84;100.00;100424.78;5094658;28;19924;-67
2021/01/08 11:11:58;;;;;;;;;;;;;;;0.87;100.00;100429.13;5103009;28;20404;-68
2021/01/08 11:14:23;;;;;;;;;;;;;;;0.79;100.00;100426.81;5109741;28;20027;-67
2021/01/08 11:16:49;;;;;;;;;;;;;;;0.81;100.00;100424.94;5099237;28;20293;-67
2021/01/08 11:19:15;;;;;;;;;;;;;;;0.82;100.00;100427.53;5093437;28;19924;-68
2021/01/08 11:21:41;;;;;;;;;;;;;;;0.88;100.00;100423.72;5075190;28;20408;-68
2021/01/08 11:24:07;;;;;;;;;;;;;;;0.87;100.00;100429.13;5093312;28;19928;-67
2021/01/08 11:26:33;;;;;;;;;;;;;;;0.86;100.00;100430.09;5092078;28;20020;-67
2021/01/08 11:29:00;;;;;;;;;;;;;;;0.87;100.00;100421.09;5094940;28;19927;-69
2021/01/08 11:31:32;;;;;;;;;;;;;;;0.92;100.00;100424.44;5113362;28;19970;-69
2021/01/08 11:33:57;;;;;;;;;;;;;;;0.97;100.00;100431.31;5110717;28;20026;-69
2021/01/08 11:36:23;;;;;;;;;;;;;;;1.00;100.00;100419.59;5091538;28;20343;-68
2021/01/08 11:38:49;;;;;;;;;;;;;;;0.94;100.00;100427.94;5102645;28;19978;-68
2021/01/08 11:41:17;;;;;;;;;;;;;;;0.97;100.00;100428.63;5113266;28;19924;-68
2021/01/08 11:43:42;;;;;;;;;;;;;;;0.94;100.00;100431.47;5105028;28;19984;-68
2021/01/08 11:46:13;;;;;;;;;;;;;;;0.96;100.00;100428.72;5092555;28;20403;-66
2021/01/08 11:48:39;;;;;;;;;;;;;;;0.98;100.00;100426.84;5101524;28;20076;-69
2021/01/08 11:51:05;;;;;;;;;;;;;;;0.98;100.00;100427.69;5112718;28;19928;-69
2021/01/08 11:53:31;;;;;;;;;;;;;;;0.99;100.00;100418.75;5105923;28;19928;-69
2021/01/08 11:55:56;;;;;;;;;;;;;;;1.02;100.00;100428.44;5103968;28;19924;-69
2021/01/08 11:58:22;;;;;;;;;;;;;;;1.01;100.00;100432.03;5112350;28;19924;-69
2021/01/08 12:00:48;;;;;;;;;;;;;;;1.07;100.00;100426.41;5104907;28;19928;-68
2021/01/08 12:03:14;;;;;;;;;;;;;;;1.08;100.00;100432.63;5123241;27;20359;-68
2021/01/08 12:05:40;;;;;;;;;;;;;;;0.95;100.00;100427.84;5112829;28;20026;-68
2021/01/08 12:08:06;;;;;;;;;;;;;;;0.95;100.00;100430.53;5111516;28;19928;-67
2021/01/08 12:10:32;;;;;;;;;;;;;;;0.93;100.00;100431.53;5112959;28;19981;-67
2021/01/08 12:12:58;;;;;;;;;;;;;;;0.96;100.00;100429.59;5111933;28;19924;-67
2021/01/08 12:15:23;;;;;;;;;;;;;;;0.94;100.00;100435.94;5112801;28;19970;-67
2021/01/08 12:17:49;;;;;;;;;;;;;;;0.92;100.00;100441.38;5099184;28;19935;-68
2021/01/08 12:20:17;;;;;;;;;;;;;;;0.87;100.00;100435.34;5092342;28;20301;-67
2021/01/08 12:22:43;;;;;;;;;;;;;;;0.92;100.00;100435.13;5103444;28;19963;-67
2021/01/08 12:25:09;;;;;;;;;;;;;;;0.88;100.00;100431.72;5112599;28;19944;-68
2021/01/08 12:27:35;;;;;;;;;;;;;;;0.82;100.00;100437.38;5106920;28;20526;-67
2021/01/08 12:30:01;;;;;;;;;;;;;;;0.80;100.00;100436.56;5116238;27;19989;-68
2021/01/08 12:32:26;;;;;;;;;;;;;;;0.79;100.00;100435.69;5111669;28;19928;-67
2021/01/08 12:34:52;;;;;;;;;;;;;;;0.81;100.00;100441.81;5111496;28;19932;-68